createdAt,value
2023-04-07T00:00:27.083Z,101384.66
2023-04-07T00:03:07.437Z,101386.44
2023-04-07T00:05:40.169Z,101384.00
2023-04-07T00:08:10.824Z,101396.28
2023-04-07T00:10:40.651Z,101390.94
2023-04-07T00:13:10.514Z,101384.94
2023-04-07T00:15:40.360Z,101379.78
2023-04-07T00:18:10.290Z,101384.03
2023-04-07T00:20:43.190Z,101386.66
2023-04-07T00:23:13.059Z,101375.19
2023-04-07T00:25:42.887Z,101384.94
2023-04-07T00:28:12.850Z,101391.16
2023-04-07T00:30:42.668Z,101389.44
2023-04-07T00:33:12.554Z,101393.03
2023-04-07T00:35:45.043Z,101388.69
2023-04-07T00:38:14.934Z,101387.78
2023-04-07T00:40:44.757Z,101391.25
2023-04-07T00:43:14.629Z,101384.34
2023-04-07T00:45:44.510Z,101392.28
2023-04-07T00:48:14.358Z,101395.00
2023-04-07T00:50:51.308Z,101397.66
2023-04-07T00:53:21.338Z,101382.84
2023-04-07T00:55:51.473Z,101393.25
2023-04-07T00:58:21.417Z,101385.38
2023-04-07T01:00:57.055Z,101385.38
2023-04-07T01:03:34.929Z,101391.53
2023-04-07T01:06:11.125Z,101394.16
2023-04-07T01:08:51.177Z,101384.50
2023-04-07T01:11:26.920Z,101384.50
2023-04-07T01:13:57.601Z,101387.91
2023-04-07T01:16:33.159Z,101395.00
2023-04-07T01:19:07.867Z,101387.91
2023-04-07T01:21:42.472Z,101386.13
2023-04-07T01:24:37.670Z,101392.22
2023-04-07T01:27:22.079Z,101381.56
2023-04-07T01:29:57.293Z,101381.41
2023-04-07T01:32:32.076Z,101388.31
2023-04-07T01:35:05.135Z,101377.75
2023-04-07T01:37:36.509Z,101380.38
2023-04-07T01:40:06.792Z,101389.16
2023-04-07T01:42:37.698Z,101381.38
2023-04-07T01:45:12.843Z,101384.88
2023-04-07T01:47:43.091Z,101388.31
2023-04-07T01:50:15.321Z,101391.69
2023-04-07T01:52:46.138Z,101385.50
2023-04-07T01:55:17.495Z,101381.00
2023-04-07T01:57:47.319Z,101381.91
2023-04-07T02:00:20.482Z,101380.16
2023-04-07T02:02:53.348Z,101390.66
2023-04-07T02:05:24.903Z,101374.03
2023-04-07T02:07:59.104Z,101388.69
2023-04-07T02:10:31.599Z,101380.69
2023-04-07T02:13:03.292Z,101388.66
2023-04-07T02:15:37.150Z,101384.16
2023-04-07T02:18:10.843Z,101383.22
2023-04-07T02:20:41.068Z,101372.81
2023-04-07T02:23:11.357Z,101384.28
2023-04-07T02:25:41.256Z,101378.19
2023-04-07T02:28:11.163Z,101389.53
2023-04-07T02:30:43.631Z,101391.31
2023-04-07T02:33:14.238Z,101391.31
2023-04-07T02:35:44.090Z,101389.63
2023-04-07T02:38:13.957Z,101392.31
2023-04-07T02:40:43.798Z,101392.38
2023-04-07T02:43:13.721Z,101393.28
2023-04-07T02:45:46.240Z,101395.91
2023-04-07T02:48:16.114Z,101395.06
2023-04-07T02:50:46.045Z,101393.38
2023-04-07T02:53:15.852Z,101397.69
2023-04-07T02:55:45.758Z,101394.13
2023-04-07T02:58:15.727Z,101391.31
2023-04-07T03:00:49.094Z,101393.91
2023-04-07T03:03:28.301Z,101396.44
2023-04-07T03:05:58.158Z,101399.91
2023-04-07T03:08:28.012Z,101402.53
2023-04-07T03:10:57.854Z,101401.69
2023-04-07T03:13:30.067Z,101407.78
2023-04-07T03:16:02.769Z,101409.41
2023-04-07T03:18:32.684Z,101405.81
2023-04-07T03:21:02.521Z,101408.44
2023-04-07T03:23:32.376Z,101406.69
2023-04-07T03:26:02.193Z,101406.56
2023-04-07T03:28:32.232Z,101403.03
2023-04-07T03:31:04.823Z,101404.59
2023-04-07T03:33:34.712Z,101405.28
2023-04-07T03:36:04.655Z,101401.78
2023-04-07T03:38:34.654Z,101415.56
2023-04-07T03:41:05.250Z,101410.06
2023-04-07T03:43:35.049Z,101415.25
2023-04-07T03:46:07.667Z,101418.69
2023-04-07T03:48:37.839Z,101415.16
2023-04-07T03:51:09.289Z,101423.13
2023-04-07T03:53:39.091Z,101416.16
2023-04-07T03:56:09.356Z,101427.53
2023-04-07T03:58:41.808Z,101425.75
2023-04-07T04:01:14.365Z,101421.16
2023-04-07T04:03:46.342Z,101432.31
2023-04-07T04:06:16.406Z,101434.78
2023-04-07T04:08:46.392Z,101437.16
2023-04-07T04:11:18.004Z,101442.19
2023-04-07T04:13:47.816Z,101438.50
2023-04-07T04:16:20.235Z,101442.72
2023-04-07T04:18:50.105Z,101450.59
2023-04-07T04:21:20.780Z,101447.97
2023-04-07T04:23:50.787Z,101448.69
2023-04-07T04:26:21.263Z,101451.13
2023-04-07T04:28:51.228Z,101456.38
2023-04-07T04:31:25.216Z,101448.50
2023-04-07T04:33:55.394Z,101447.72
2023-04-07T04:36:25.354Z,101459.09
2023-04-07T04:38:55.190Z,101463.59
2023-04-07T04:41:25.020Z,101457.38
2023-04-07T04:43:54.879Z,101463.59
2023-04-07T04:46:28.187Z,101465.38
2023-04-07T04:48:58.305Z,101468.09
2023-04-07T04:51:28.288Z,101465.47
2023-04-07T04:53:58.110Z,101477.75
2023-04-07T04:56:27.995Z,101474.22
2023-04-07T04:58:57.845Z,101470.81
2023-04-07T05:01:32.116Z,101471.72
2023-04-07T05:04:09.573Z,101475.13
2023-04-07T05:06:39.872Z,101479.41
2023-04-07T05:09:09.850Z,101482.03
2023-04-07T05:11:39.741Z,101490.72
2023-04-07T05:14:10.118Z,101488.91
2023-04-07T05:16:42.829Z,101491.44
2023-04-07T05:19:12.696Z,101489.66
2023-04-07T05:21:42.600Z,101500.06
2023-04-07T05:24:12.465Z,101505.31
2023-04-07T05:26:44.552Z,101509.56
2023-04-07T05:29:14.411Z,101505.94
2023-04-07T05:31:46.867Z,101510.28
2023-04-07T05:34:16.804Z,101505.88
2023-04-07T05:36:46.693Z,101521.53
2023-04-07T05:39:18.171Z,101520.63
2023-04-07T05:41:48.219Z,101524.97
2023-04-07T05:44:18.180Z,101524.09
2023-04-07T05:46:50.782Z,101529.31
2023-04-07T05:49:20.867Z,101526.75
2023-04-07T05:51:50.903Z,101528.50
2023-04-07T05:54:21.235Z,101530.22
2023-04-07T05:56:51.115Z,101532.75
2023-04-07T05:59:21.688Z,101540.69
2023-04-07T06:01:54.782Z,101543.16
2023-04-07T06:04:24.698Z,101547.47
2023-04-07T06:06:55.591Z,101542.34
2023-04-07T06:09:25.721Z,101548.63
2023-04-07T06:11:56.956Z,101552.25
2023-04-07T06:14:26.897Z,101543.56
2023-04-07T06:16:59.574Z,101550.75
2023-04-07T06:19:30.439Z,101552.59
2023-04-07T06:22:00.325Z,101563.97
2023-04-07T06:24:30.190Z,101560.34
2023-04-07T06:27:00.225Z,101558.72
2023-04-07T06:29:30.188Z,101565.75
2023-04-07T06:32:04.311Z,101563.31
2023-04-07T06:34:34.170Z,101561.75
2023-04-07T06:37:07.543Z,101562.66
2023-04-07T06:39:38.659Z,101569.63
2023-04-07T06:42:10.367Z,101573.06
2023-04-07T06:44:40.301Z,101578.38
2023-04-07T06:47:13.297Z,101571.34
2023-04-07T06:49:43.309Z,101581.84
2023-04-07T06:52:13.233Z,101581.69
2023-04-07T06:54:43.588Z,101584.34
2023-04-07T06:57:13.470Z,101587.97
2023-04-07T06:59:43.352Z,101589.69
2023-04-07T07:02:15.983Z,101592.47
2023-04-07T07:04:45.938Z,101589.28
2023-04-07T07:07:15.897Z,101596.56
2023-04-07T07:09:45.995Z,101595.06
2023-04-07T07:12:17.409Z,101608.28
2023-04-07T07:14:48.325Z,101599.69
2023-04-07T07:17:21.051Z,101605.16
2023-04-07T07:19:50.923Z,101609.69
2023-04-07T07:22:21.029Z,101607.88
2023-04-07T07:24:51.487Z,101614.94
2023-04-07T07:27:22.159Z,101622.63
2023-04-07T07:29:51.997Z,101625.13
2023-04-07T07:32:24.430Z,101632.00
2023-04-07T07:34:54.320Z,101630.16
2023-04-07T07:37:24.210Z,101625.84
2023-04-07T07:39:54.137Z,101636.50
2023-04-07T07:42:23.948Z,101634.13
2023-04-07T07:44:53.982Z,101637.81
2023-04-07T07:47:26.640Z,101640.66
2023-04-07T07:49:56.800Z,101645.09
2023-04-07T07:52:27.343Z,101643.34
2023-04-07T07:54:57.132Z,101646.16
2023-04-07T07:57:27.022Z,101647.38
2023-04-07T07:59:56.850Z,101653.75
2023-04-07T08:02:32.389Z,101640.22
2023-04-07T08:05:04.115Z,101648.56
2023-04-07T08:07:34.043Z,101660.28
2023-04-07T08:10:03.928Z,101663.97
2023-04-07T08:12:33.788Z,101664.28
2023-04-07T08:15:03.772Z,101670.59
2023-04-07T08:17:36.457Z,101674.88
2023-04-07T08:20:06.928Z,101679.16
2023-04-07T08:22:40.900Z,101686.19
2023-04-07T08:25:11.468Z,101685.31
2023-04-07T08:27:41.622Z,101683.41
2023-04-07T08:30:12.043Z,101691.31
2023-04-07T08:32:46.378Z,101693.94
2023-04-07T08:35:16.426Z,101697.13
2023-04-07T08:37:46.619Z,101707.25
2023-04-07T08:40:16.624Z,101701.81
2023-04-07T08:42:51.731Z,101696.66
2023-04-07T08:45:21.740Z,101704.63
2023-04-07T08:47:58.287Z,101705.81
2023-04-07T08:50:30.763Z,101717.56
2023-04-07T08:53:06.922Z,101718.03
2023-04-07T08:55:38.855Z,101713.25
2023-04-07T08:58:12.569Z,101714.63
2023-04-07T09:00:46.027Z,101714.78
2023-04-07T09:03:20.596Z,101727.66
2023-04-07T09:05:56.575Z,101721.47
2023-04-07T09:08:26.506Z,101719.78
2023-04-07T09:10:56.834Z,101732.41
2023-04-07T09:13:27.844Z,101727.72
2023-04-07T09:15:57.844Z,101724.94
2023-04-07T09:18:31.504Z,101731.66
2023-04-07T09:21:03.051Z,101729.25
2023-04-07T09:23:35.039Z,101731.94
2023-04-07T09:26:28.492Z,101736.66
2023-04-07T09:29:01.623Z,101735.81
2023-04-07T09:31:50.524Z,101731.31
2023-04-07T09:34:34.145Z,101733.28
2023-04-07T09:37:04.534Z,101738.53
2023-04-07T09:39:34.597Z,101737.41
2023-04-07T09:42:10.145Z,101735.53
2023-04-07T09:44:46.698Z,101734.91
2023-04-07T09:47:16.796Z,101744.75
2023-04-07T09:49:57.356Z,101739.09
2023-04-07T09:52:49.561Z,101747.53
2023-04-07T09:55:20.746Z,101751.88
2023-04-07T09:57:52.472Z,101747.97
2023-04-07T10:00:22.632Z,101744.00
2023-04-07T10:02:53.709Z,101744.53
2023-04-07T10:05:28.444Z,101752.13
2023-04-07T10:08:00.363Z,101745.28
2023-04-07T10:10:31.010Z,101755.88
2023-04-07T10:13:01.566Z,101743.75
2023-04-07T10:15:31.466Z,101744.94
2023-04-07T10:18:04.410Z,101752.97
2023-04-07T10:20:37.375Z,101743.91
2023-04-07T10:23:16.628Z,101764.75
2023-04-07T10:25:49.168Z,101759.06
2023-04-07T10:28:21.481Z,101765.97
2023-04-07T10:30:52.298Z,101762.09
2023-04-07T10:33:42.099Z,101773.59
2023-04-07T10:36:14.554Z,101773.66
2023-04-07T10:38:44.606Z,101779.16
2023-04-07T10:41:40.561Z,101776.81
2023-04-07T10:44:12.331Z,101780.34
2023-04-07T10:47:05.887Z,101784.31
2023-04-07T10:49:37.049Z,101791.50
2023-04-07T10:52:28.050Z,101781.38
2023-04-07T10:55:34.728Z,101790.63
2023-04-07T10:58:18.275Z,101775.91
2023-04-07T11:01:24.628Z,101784.28
2023-04-07T11:04:02.967Z,101786.34
2023-04-07T11:06:33.054Z,101777.13
2023-04-07T11:09:05.760Z,101796.06
2023-04-07T11:11:44.167Z,101799.81
2023-04-07T11:14:14.084Z,101790.47
2023-04-07T11:16:46.176Z,101793.47
2023-04-07T11:19:16.186Z,101794.72
2023-04-07T11:21:46.465Z,101794.16
2023-04-07T11:24:40.746Z,101801.50
2023-04-07T11:27:16.058Z,101792.16
2023-04-07T11:29:46.258Z,101792.41
2023-04-07T11:32:16.827Z,101790.91
2023-04-07T11:34:46.973Z,101800.06
2023-04-07T11:37:23.556Z,101795.09
2023-04-07T11:40:00.382Z,101797.06
2023-04-07T11:42:37.236Z,101800.88
2023-04-07T11:45:08.488Z,101801.94
2023-04-07T11:47:39.207Z,101802.16
2023-04-07T11:50:11.705Z,101804.13
2023-04-07T11:52:46.767Z,101804.81
2023-04-07T11:55:26.910Z,101811.47
2023-04-07T11:58:00.440Z,101816.44
2023-04-07T12:00:30.305Z,101808.91
2023-04-07T12:03:15.147Z,101810.53
2023-04-07T12:05:48.639Z,101821.81
2023-04-07T12:08:20.651Z,101814.75
2023-04-07T12:11:07.098Z,101809.56
2023-04-07T12:13:37.069Z,101820.44
2023-04-07T12:16:07.389Z,101817.41
2023-04-07T12:18:37.372Z,101819.56
2023-04-07T12:21:08.078Z,101825.25
2023-04-07T12:23:37.920Z,101821.31
2023-04-07T12:26:12.056Z,101821.63
2023-04-07T12:28:41.955Z,101821.06
2023-04-07T12:31:12.635Z,101827.50
2023-04-07T12:33:42.480Z,101826.91
2023-04-07T12:36:12.347Z,101832.53
2023-04-07T12:38:42.646Z,101823.16
2023-04-07T12:41:15.230Z,101827.69
2023-04-07T12:43:46.819Z,101840.97
2023-04-07T12:46:17.120Z,101825.94
2023-04-07T12:48:48.094Z,101824.31
2023-04-07T12:51:23.032Z,101827.31
2023-04-07T12:53:54.402Z,101831.94
2023-04-07T12:56:26.854Z,101827.97
2023-04-07T12:58:56.771Z,101821.16
2023-04-07T13:01:28.186Z,101826.81
2023-04-07T13:03:58.236Z,101822.69
2023-04-07T13:06:28.189Z,101818.28
2023-04-07T13:08:58.306Z,101825.59
2023-04-07T13:11:32.710Z,101832.94
2023-04-07T13:14:02.571Z,101828.94
2023-04-07T13:16:32.537Z,101827.44
2023-04-07T13:19:04.322Z,101826.78
2023-04-07T13:21:46.076Z,101833.22
2023-04-07T13:24:17.530Z,101823.75
2023-04-07T13:26:49.922Z,101835.44
2023-04-07T13:29:19.741Z,101836.34
2023-04-07T13:31:49.933Z,101833.91
2023-04-07T13:34:20.045Z,101832.41
2023-04-07T13:36:49.875Z,101831.81
2023-04-07T13:39:19.661Z,101834.50
2023-04-07T13:41:55.174Z,101845.16
2023-04-07T13:44:26.675Z,101841.59
2023-04-07T13:46:56.922Z,101847.50
2023-04-07T13:49:26.896Z,101840.97
2023-04-07T13:51:56.744Z,101848.69
2023-04-07T13:54:26.755Z,101844.88
2023-04-07T13:56:59.731Z,101852.72
2023-04-07T13:59:29.585Z,101843.69
2023-04-07T14:01:59.694Z,101847.09
2023-04-07T14:04:32.841Z,101844.13
2023-04-07T14:07:04.943Z,101849.66
2023-04-07T14:09:34.741Z,101852.66
2023-04-07T14:12:07.662Z,101850.72
2023-04-07T14:14:37.848Z,101854.22
2023-04-07T14:17:07.714Z,101856.97
2023-04-07T14:19:37.632Z,101859.63
2023-04-07T14:22:07.861Z,101856.13
2023-04-07T14:24:37.991Z,101865.00
2023-04-07T14:27:10.841Z,101851.94
2023-04-07T14:29:40.837Z,101858.13
2023-04-07T14:32:10.660Z,101860.72
2023-04-07T14:34:40.702Z,101865.13
2023-04-07T14:37:10.590Z,101867.81
2023-04-07T14:39:45.927Z,101873.22
2023-04-07T14:42:24.291Z,101862.78
2023-04-07T14:44:54.195Z,101863.78
2023-04-07T14:47:24.086Z,101861.28
2023-04-07T14:49:59.109Z,101863.94
2023-04-07T14:52:28.992Z,101859.63
2023-04-07T14:55:00.268Z,101865.88
2023-04-07T14:57:33.059Z,101871.28
2023-04-07T15:00:05.910Z,101871.28
2023-04-07T15:02:39.642Z,101872.34
2023-04-07T15:05:11.344Z,101874.19
2023-04-07T15:07:41.211Z,101878.69
2023-04-07T15:10:11.937Z,101881.34
2023-04-07T15:12:47.273Z,101872.50
2023-04-07T15:15:17.792Z,101877.00
2023-04-07T15:17:47.714Z,101873.50
2023-04-07T15:20:17.626Z,101891.19
2023-04-07T15:22:47.466Z,101879.75
2023-04-07T15:25:17.314Z,101883.25
2023-04-07T15:27:50.091Z,101880.59
2023-04-07T15:30:26.698Z,101881.50
2023-04-07T15:33:01.070Z,101884.19
2023-04-07T15:35:31.035Z,101889.53
2023-04-07T15:38:01.039Z,101883.41
2023-04-07T15:40:34.178Z,101891.38
2023-04-07T15:43:10.587Z,101887.91
2023-04-07T15:45:44.760Z,101898.50
2023-04-07T15:48:15.626Z,101897.56
2023-04-07T15:50:45.537Z,101895.78
2023-04-07T15:53:16.004Z,101900.19
2023-04-07T15:55:46.588Z,101900.19
2023-04-07T15:58:19.298Z,101904.59
2023-04-07T16:00:49.276Z,101912.47
2023-04-07T16:03:25.865Z,101907.19
2023-04-07T16:05:56.222Z,101909.75
2023-04-07T16:08:26.078Z,101905.25
2023-04-07T16:10:55.983Z,101906.94
2023-04-07T16:13:28.484Z,101903.41
2023-04-07T16:15:59.689Z,101908.44
2023-04-07T16:18:30.355Z,101918.75
2023-04-07T16:21:04.208Z,101903.50
2023-04-07T16:23:34.534Z,101918.38
2023-04-07T16:26:04.667Z,101917.41
2023-04-07T16:28:37.850Z,101921.84
2023-04-07T16:31:11.776Z,101929.75
2023-04-07T16:33:42.197Z,101927.00
2023-04-07T16:36:12.187Z,101928.59
2023-04-07T16:38:42.249Z,101928.31
2023-04-07T16:41:12.215Z,101921.09
2023-04-07T16:43:44.774Z,101940.56
2023-04-07T16:46:14.745Z,101949.19
2023-04-07T16:48:44.694Z,101950.34
2023-04-07T16:51:19.461Z,101951.13
2023-04-07T16:53:50.140Z,101957.22
2023-04-07T16:59:14.366Z,101959.84
2023-04-07T17:01:46.141Z,101958.44
2023-04-07T17:04:17.247Z,101964.09
2023-04-07T17:06:47.390Z,101961.75
2023-04-07T17:09:18.770Z,101970.25
2023-04-07T17:11:48.812Z,101977.63
2023-04-07T17:14:23.714Z,101975.28
2023-04-07T17:16:53.903Z,101983.50
2023-04-07T17:19:23.831Z,101980.34
2023-04-07T17:21:53.951Z,101988.75
2023-04-07T17:24:23.998Z,101996.38
2023-04-07T17:26:53.950Z,101991.47
2023-04-07T17:29:29.263Z,102004.13
2023-04-07T17:31:59.409Z,101998.25
2023-04-07T17:34:29.334Z,102003.91
2023-04-07T17:36:59.267Z,102012.44
2023-04-07T17:39:29.378Z,102017.34
2023-04-07T17:41:59.278Z,102019.44
2023-04-07T17:44:31.769Z,102026.13
2023-04-07T17:47:02.768Z,102029.28
2023-04-07T17:49:32.638Z,102030.72
2023-04-07T17:52:03.045Z,102027.69
2023-04-07T17:54:34.161Z,102037.00
2023-04-07T17:57:04.118Z,102041.94
2023-04-07T17:59:36.814Z,102054.13
2023-04-07T18:02:09.284Z,102052.88
2023-04-07T18:04:40.610Z,102056.16
2023-04-07T18:07:14.437Z,102059.38
2023-04-07T18:09:45.191Z,102061.78
2023-04-07T18:12:15.245Z,102072.06
2023-04-07T18:14:47.668Z,102066.56
2023-04-07T18:17:17.998Z,102075.03
2023-04-07T18:19:47.878Z,102070.41
2023-04-07T18:22:18.219Z,102079.69
2023-04-07T18:24:48.238Z,102085.53
2023-04-07T18:27:18.073Z,102096.59
2023-04-07T18:29:51.274Z,102098.13
2023-04-07T18:32:21.292Z,102094.44
2023-04-07T18:34:51.431Z,102104.69
2023-04-07T18:37:21.458Z,102104.28
2023-04-07T18:39:57.127Z,102106.56
2023-04-07T18:42:27.307Z,102110.72
2023-04-07T18:44:59.964Z,102113.09
2023-04-07T18:47:30.366Z,102117.19
2023-04-07T18:50:01.024Z,102132.72
2023-04-07T18:52:31.169Z,102129.81
2023-04-07T18:55:01.091Z,102148.00
2023-04-07T18:57:31.451Z,102158.16
2023-04-07T19:00:04.372Z,102163.97
2023-04-07T19:02:38.955Z,102160.19
2023-04-07T19:05:09.181Z,102167.78
2023-04-07T19:07:39.212Z,102177.91
2023-04-07T19:10:14.449Z,102178.44
2023-04-07T19:12:44.281Z,102180.63
2023-04-07T19:15:17.531Z,102177.53
2023-04-07T19:17:47.440Z,102182.44
2023-04-07T19:20:17.350Z,102187.41
2023-04-07T19:22:47.206Z,102185.19
2023-04-07T19:25:17.288Z,102184.00
2023-04-07T19:27:47.310Z,102201.19
2023-04-07T19:30:19.880Z,102197.38
2023-04-07T19:32:51.205Z,102199.81
2023-04-07T19:35:21.824Z,102200.53
2023-04-07T19:37:52.634Z,102211.75
2023-04-07T19:40:23.671Z,102203.47
2023-04-07T19:42:54.941Z,102213.78
2023-04-07T19:45:27.424Z,102210.88
2023-04-07T19:47:57.493Z,102210.56
2023-04-07T19:50:28.518Z,102221.50
2023-04-07T19:52:58.322Z,102212.63
2023-04-07T19:55:28.124Z,102226.44
2023-04-07T19:58:00.539Z,102224.31
2023-04-07T20:00:37.712Z,102223.22
2023-04-07T20:03:08.320Z,102223.13
2023-04-07T20:05:38.862Z,102229.88
2023-04-07T20:08:08.737Z,102233.78
2023-04-07T20:10:40.176Z,102231.78
2023-04-07T20:13:10.580Z,102231.59
2023-04-07T20:15:44.275Z,102234.81
2023-04-07T20:18:14.145Z,102232.06
2023-04-07T20:20:43.963Z,102241.56
2023-04-07T20:23:15.161Z,102249.31
2023-04-07T20:25:45.514Z,102244.88
2023-04-07T20:28:15.500Z,102247.31
2023-04-07T20:30:47.981Z,102246.28
2023-04-07T20:33:17.843Z,102249.72
2023-04-07T20:35:47.709Z,102257.59
2023-04-07T20:38:18.938Z,102255.78
2023-04-07T20:40:48.757Z,102252.03
2023-04-07T20:43:22.086Z,102256.97
2023-04-07T20:45:55.099Z,102254.16
2023-04-07T20:48:26.183Z,102256.38
2023-04-07T20:50:56.085Z,102259.56
2023-04-07T20:53:25.957Z,102259.38
2023-04-07T20:55:56.343Z,102259.97
2023-04-07T20:58:26.194Z,102265.81
2023-04-07T21:01:02.269Z,102263.97
2023-04-07T21:03:36.109Z,102268.13
2023-04-07T21:06:07.352Z,102265.59
2023-04-07T21:08:37.187Z,102271.53
2023-04-07T21:11:07.086Z,102271.44
2023-04-07T21:13:36.980Z,102265.88
2023-04-07T21:16:09.765Z,102271.00
2023-04-07T21:18:39.652Z,102275.34
2023-04-07T21:21:09.495Z,102282.28
2023-04-07T21:23:44.626Z,102278.66
2023-04-07T21:26:14.508Z,102281.28
2023-04-07T21:28:44.472Z,102277.88
2023-04-07T21:31:23.786Z,102281.38
2023-04-07T21:33:54.243Z,102279.47
2023-04-07T21:36:24.184Z,102293.13
2023-04-07T21:38:56.686Z,102294.72
2023-04-07T21:41:26.583Z,102292.81
2023-04-07T21:43:56.760Z,102297.97
2023-04-07T21:46:29.391Z,102294.31
2023-04-07T21:49:00.160Z,102298.66
2023-04-07T21:51:29.992Z,102293.31
2023-04-07T21:54:02.420Z,102301.16
2023-04-07T21:56:32.217Z,102300.81
2023-04-07T21:59:02.081Z,102299.81
2023-04-07T22:01:34.808Z,102300.75
2023-04-07T22:04:07.845Z,102300.63
2023-04-07T22:06:37.760Z,102308.16
2023-04-07T22:09:09.178Z,102307.03
2023-04-07T22:11:39.062Z,102297.06
2023-04-07T22:14:08.897Z,102305.69
2023-04-07T22:16:41.485Z,102309.19
2023-04-07T22:19:11.328Z,102314.34
2023-04-07T22:21:41.637Z,102315.13
2023-04-07T22:24:13.748Z,102320.97
2023-04-07T22:26:46.575Z,102316.41
2023-04-07T22:29:16.344Z,102316.28
2023-04-07T22:31:48.817Z,102321.19
2023-04-07T22:34:18.629Z,102320.16
2023-04-07T22:36:48.477Z,102322.69
2023-04-07T22:39:18.265Z,102332.94
2023-04-07T22:41:48.064Z,102330.09
2023-04-07T22:44:17.949Z,102345.56
2023-04-07T22:46:50.529Z,102345.34
2023-04-07T22:49:20.369Z,102346.94
2023-04-07T22:51:50.881Z,102343.91
2023-04-07T22:54:21.519Z,102358.56
2023-04-07T22:56:51.365Z,102356.63
2023-04-07T22:59:21.240Z,102351.19
2023-04-07T23:01:55.676Z,102351.63
2023-04-07T23:04:31.307Z,102357.31
2023-04-07T23:07:04.214Z,102358.91
2023-04-07T23:09:34.069Z,102363.91
2023-04-07T23:12:04.429Z,102363.69
2023-04-07T23:14:34.370Z,102367.66
2023-04-07T23:17:06.853Z,102360.50
2023-04-07T23:19:36.730Z,102367.31
2023-04-07T23:22:08.893Z,102368.91
2023-04-07T23:24:38.711Z,102377.53
2023-04-07T23:27:08.563Z,102381.38
2023-04-07T23:29:39.132Z,102380.34
2023-04-07T23:32:11.762Z,102381.84
2023-04-07T23:34:41.667Z,102376.16
2023-04-07T23:37:11.598Z,102376.72
2023-04-07T23:39:41.424Z,102378.28
2023-04-07T23:42:12.413Z,102387.72
2023-04-07T23:44:42.317Z,102391.81
2023-04-07T23:47:14.784Z,102391.59
2023-04-07T23:49:44.757Z,102392.25
2023-04-07T23:52:17.018Z,102395.56
2023-04-07T23:54:47.176Z,102390.88
2023-04-07T23:57:16.997Z,102396.63
2023-04-07T23:59:47.048Z,102399.00
